Cedar Falls, Iowa
Current Conditions -  °F | °C
As of 12:54 PM on Thursday 23 Oct 2014 (Local Time) from KALO Reporting Station
Overcast Overcast  
Wind Chill: 52°   Ceiling: 500
Heat Index: 52°   Visibility: 7mi
Dew Point: 50°   Wind: 5mph
Humidity: 93%   Direction: 170°S
Pressure: 30.04"   Gusts: NA
Location:  42.53°N, 92.44°W
Report Text: KALO 231754Z 17004KT 7SM OVC005 11/10 A3004 RMK AO2 SLP174 60032 T01110100 10111 20083 58005
Loading
Personal Weather Stations






























Interactive Weather Map New forecast layout! Learn more

10-Day Weather Forecast

Advertisements
Track Severe Weather on mobile